Thalassa — FNFP — position and weather

sailwx.info

Track history (hours):
 
Tides and Currents Weather Stations Pressure Air Temp Water Temp Dewpoint Dewpoint Depression Visibility Wind Speed Wind Dir Waves Ship Positions

Oceanographic research ship Thalassa (France & Spain)

Detailed information on ship capabilities available from University of Delaware's Ocean Information Center.

Last reported at 2014-Aug-06 15:30 UTC. Time now 2014-Aug-23 15:23 UTC.
Position N 47°49' W 052°33'.
Warning: this ship's position is 16 days out of date.

Length 74 m; beam 15 m.

Type: . MMSI: 227297000.

Date/timePositionNaut miles runAvg speedWind from/ knotsBaromVisibWave heightAir tempDewpointWater temp
2014-Aug-06 15:30N 47°49' W 052°33'1212.5
2014-Aug-06 14:30N 47°36' W 052°35'4 3.4
2014-Aug-06 13:29N 47°33' W 052°35'5 5.2
2014-Aug-06 12:32N 47°34' W 052°42'0 0.0
2014-Aug-06 11:31N 47°34' W 052°42'0 0.0
2014-Aug-06 10:28N 47°34' W 052°42'0 0.0
2014-Aug-06 09:31N 47°34' W 052°42'0 0.0
2014-Aug-06 08:31N 47°34' W 052°42'0 0.0
2014-Aug-06 07:30N 47°34' W 052°42'0 0.0
2014-Aug-06 06:30N 47°34' W 052°42'0 0.0
2014-Aug-06 05:29N 47°34' W 052°42'0 0.0
2014-Aug-06 04:33N 47°34' W 052°42'0 0.0
2014-Aug-06 03:32N 47°34' W 052°42'0 0.0
2014-Aug-06 02:31N 47°34' W 052°42'0 0.0
2014-Aug-06 01:31N 47°34' W 052°42'0 0.0
2014-Aug-06 00:30N 47°34' W 052°42'0 0.0
2014-Aug-05 23:30N 47°34' W 052°42'0 0.0
2014-Aug-05 22:29N 47°34' W 052°42'0 0.0
2014-Aug-05 21:29N 47°34' W 052°42'0 0.0
2014-Aug-05 20:33N 47°34' W 052°42'0 0.0
2014-Aug-05 19:33N 47°34' W 052°42'0 0.0
2014-Aug-05 18:31N 47°34' W 052°42'0 0.0
2014-Aug-05 17:30N 47°34' W 052°42'0 0.0
2014-Aug-05 16:24N 47°34' W 052°42'0 0.0
2014-Aug-05 15:33N 47°34' W 052°42'0 0.0
2014-Aug-05 14:32N 47°34' W 052°42'0 0.0
2014-Aug-05 13:31N 47°34' W 052°42'0 0.0
2014-Aug-05 12:31N 47°34' W 052°42'0 0.0
2014-Aug-05 11:30N 47°34' W 052°42'0 0.0
2014-Aug-05 10:30N 47°34' W 052°42'0 0.0
2014-Aug-05 09:29N 47°34' W 052°42'0 0.0
2014-Aug-05 08:33N 47°34' W 052°42'0 0.0
2014-Aug-05 07:32N 47°34' W 052°42'0 0.0
2014-Aug-05 06:32N 47°34' W 052°42'0 0.0
2014-Aug-05 05:31N 47°34' W 052°42'0 0.0
2014-Aug-05 04:30N 47°34' W 052°42'0 0.0
2014-Aug-05 03:29N 47°34' W 052°42'0 0.0
2014-Aug-05 02:33N 47°34' W 052°42'0 0.0
2014-Aug-05 01:32N 47°34' W 052°42'0 0.0
2014-Aug-05 00:31N 47°34' W 052°42'0 0.0
2014-Aug-04 23:31N 47°34' W 052°42'0 0.0
2014-Aug-04 22:30N 47°34' W 052°42'0 0.0
2014-Aug-04 21:30N 47°34' W 052°42'0 0.0
2014-Aug-04 20:29N 47°34' W 052°42'0 0.0
2014-Aug-04 19:33N 47°34' W 052°42'0 0.0
2014-Aug-04 18:32N 47°34' W 052°42'0 0.0
2014-Aug-04 17:31N 47°34' W 052°42'0 0.0
2014-Aug-04 16:31N 47°34' W 052°42'0 0.0
2014-Aug-04 15:30N 47°34' W 052°42'0 0.0
2014-Aug-04 14:24N 47°34' W 052°42'0 0.0
2014-Aug-04 13:33N 47°34' W 052°42'0 0.0
2014-Aug-04 12:32N 47°34' W 052°42'0 0.0
2014-Aug-04 11:31N 47°34' W 052°42'0 0.0
2014-Aug-04 10:30N 47°34' W 052°42'0 0.0
2014-Aug-04 09:30N 47°34' W 052°42'0 0.0
2014-Aug-04 08:29N 47°34' W 052°42'0 0.0
2014-Aug-04 07:28N 47°34' W 052°42'0 0.0
2014-Aug-04 06:33N 47°34' W 052°42'0 0.0
2014-Aug-04 05:33N 47°34' W 052°42'0 0.0
2014-Aug-04 04:32N 47°34' W 052°42'0 0.0
2014-Aug-04 03:31N 47°34' W 052°42'0 0.0
2014-Aug-04 02:30N 47°34' W 052°42'0 0.0
2014-Aug-04 01:29N 47°34' W 052°42'0 0.0
2014-Aug-04 00:29N 47°34' W 052°42'0 0.0
2014-Aug-03 23:33N 47°34' W 052°42'0 0.0
2014-Aug-03 22:32N 47°34' W 052°42'0 0.0
2014-Aug-03 21:31N 47°34' W 052°42'0 0.0
2014-Aug-03 20:31N 47°34' W 052°42'0 0.0
2014-Aug-03 19:30N 47°34' W 052°42'0 0.0
2014-Aug-03 18:24N 47°34' W 052°42'0 0.0
2014-Aug-03 17:33N 47°34' W 052°42'3 0.5
2014-Aug-03 11:33N 47°34' W 052°38'8 8.2
2014-Aug-03 10:33N 47°34' W 052°25'10 9.3
2014-Aug-03 09:29N 47°34' W 052°11'  
Track history (hours):
 
Tides and Currents Weather Stations Pressure Air Temp Water Temp Dewpoint Dewpoint Depression Visibility Wind Speed Wind Dir Waves Ship Positions

Oceanographic research ship Thalassa (France & Spain)

Detailed information on ship capabilities available from University of Delaware's Ocean Information Center.

Last reported at 2014-Aug-06 15:30 UTC. Time now 2014-Aug-23 15:23 UTC.
Position N 47°49' W 052°33'.
Warning: this ship's position is 16 days out of date.

Length 74 m; beam 15 m.

Type: . MMSI: 227297000.

Date/timePositionNaut miles runAvg speedWind from/ knotsBaromVisibWave heightAir tempDewpointWater temp
2014-Aug-06 15:30N 47°49' W 052°33'1212.5
2014-Aug-06 14:30N 47°36' W 052°35'4 3.4
2014-Aug-06 13:29N 47°33' W 052°35'5 5.2
2014-Aug-06 12:32N 47°34' W 052°42'0 0.0
2014-Aug-06 11:31N 47°34' W 052°42'0 0.0
2014-Aug-06 10:28N 47°34' W 052°42'0 0.0
2014-Aug-06 09:31N 47°34' W 052°42'0 0.0
2014-Aug-06 08:31N 47°34' W 052°42'0 0.0
2014-Aug-06 07:30N 47°34' W 052°42'0 0.0
2014-Aug-06 06:30N 47°34' W 052°42'0 0.0
2014-Aug-06 05:29N 47°34' W 052°42'0 0.0
2014-Aug-06 04:33N 47°34' W 052°42'0 0.0
2014-Aug-06 03:32N 47°34' W 052°42'0 0.0
2014-Aug-06 02:31N 47°34' W 052°42'0 0.0
2014-Aug-06 01:31N 47°34' W 052°42'0 0.0
2014-Aug-06 00:30N 47°34' W 052°42'0 0.0
2014-Aug-05 23:30N 47°34' W 052°42'0 0.0
2014-Aug-05 22:29N 47°34' W 052°42'0 0.0
2014-Aug-05 21:29N 47°34' W 052°42'0 0.0
2014-Aug-05 20:33N 47°34' W 052°42'0 0.0
2014-Aug-05 19:33N 47°34' W 052°42'0 0.0
2014-Aug-05 18:31N 47°34' W 052°42'0 0.0
2014-Aug-05 17:30N 47°34' W 052°42'0 0.0
2014-Aug-05 16:24N 47°34' W 052°42'0 0.0
2014-Aug-05 15:33N 47°34' W 052°42'0 0.0
2014-Aug-05 14:32N 47°34' W 052°42'0 0.0
2014-Aug-05 13:31N 47°34' W 052°42'0 0.0
2014-Aug-05 12:31N 47°34' W 052°42'0 0.0
2014-Aug-05 11:30N 47°34' W 052°42'0 0.0
2014-Aug-05 10:30N 47°34' W 052°42'0 0.0
2014-Aug-05 09:29N 47°34' W 052°42'0 0.0
2014-Aug-05 08:33N 47°34' W 052°42'0 0.0
2014-Aug-05 07:32N 47°34' W 052°42'0 0.0
2014-Aug-05 06:32N 47°34' W 052°42'0 0.0
2014-Aug-05 05:31N 47°34' W 052°42'0 0.0
2014-Aug-05 04:30N 47°34' W 052°42'0 0.0
2014-Aug-05 03:29N 47°34' W 052°42'0 0.0
2014-Aug-05 02:33N 47°34' W 052°42'0 0.0
2014-Aug-05 01:32N 47°34' W 052°42'0 0.0
2014-Aug-05 00:31N 47°34' W 052°42'0 0.0
2014-Aug-04 23:31N 47°34' W 052°42'0 0.0
2014-Aug-04 22:30N 47°34' W 052°42'0 0.0
2014-Aug-04 21:30N 47°34' W 052°42'0 0.0
2014-Aug-04 20:29N 47°34' W 052°42'0 0.0
2014-Aug-04 19:33N 47°34' W 052°42'0 0.0
2014-Aug-04 18:32N 47°34' W 052°42'0 0.0
2014-Aug-04 17:31N 47°34' W 052°42'0 0.0
2014-Aug-04 16:31N 47°34' W 052°42'0 0.0
2014-Aug-04 15:30N 47°34' W 052°42'0 0.0
2014-Aug-04 14:24N 47°34' W 052°42'0 0.0
2014-Aug-04 13:33N 47°34' W 052°42'0 0.0
2014-Aug-04 12:32N 47°34' W 052°42'0 0.0
2014-Aug-04 11:31N 47°34' W 052°42'0 0.0
2014-Aug-04 10:30N 47°34' W 052°42'0 0.0
2014-Aug-04 09:30N 47°34' W 052°42'0 0.0
2014-Aug-04 08:29N 47°34' W 052°42'0 0.0
2014-Aug-04 07:28N 47°34' W 052°42'0 0.0
2014-Aug-04 06:33N 47°34' W 052°42'0 0.0
2014-Aug-04 05:33N 47°34' W 052°42'0 0.0
2014-Aug-04 04:32N 47°34' W 052°42'0 0.0
2014-Aug-04 03:31N 47°34' W 052°42'0 0.0
2014-Aug-04 02:30N 47°34' W 052°42'0 0.0
2014-Aug-04 01:29N 47°34' W 052°42'0 0.0
2014-Aug-04 00:29N 47°34' W 052°42'0 0.0
2014-Aug-03 23:33N 47°34' W 052°42'0 0.0
2014-Aug-03 22:32N 47°34' W 052°42'0 0.0
2014-Aug-03 21:31N 47°34' W 052°42'0 0.0
2014-Aug-03 20:31N 47°34' W 052°42'0 0.0
2014-Aug-03 19:30N 47°34' W 052°42'0 0.0
2014-Aug-03 18:24N 47°34' W 052°42'0 0.0
2014-Aug-03 17:33N 47°34' W 052°42'3 0.5
2014-Aug-03 11:33N 47°34' W 052°38'8 8.2
2014-Aug-03 10:33N 47°34' W 052°25'10 9.3
2014-Aug-03 09:29N 47°34' W 052°11'  

Dump ship's entire track history